Time;durP1;ratioP1;P1;durP2;ratioP2;P2;SDS_P1;SDS_P2;PMS_P1;PMS_P2;Temp;Humidity;BMP_temperature;BMP_pressure;BME280_temperature;BME280_humidity;BME280_pressure;Samples;Min_cycle;Max_cycle;Signal;HPM_P1;HPM_P2
2022/08/24 00:01:11;;;;;;;4.93;2.42;;;22.70;90.10;;;;;;5002934;28;20030;-81
2022/08/24 00:03:38;;;;;;;5.80;2.22;;;22.60;89.90;;;;;;5000671;28;20038;-80
2022/08/24 00:06:08;;;;;;;10.88;2.47;;;22.60;89.70;;;;;;5006331;28;20034;-82
2022/08/24 00:08:34;;;;;;;6.63;2.40;;;22.60;89.60;;;;;;5007570;28;20021;-83
2022/08/24 00:11:00;;;;;;;5.93;2.80;;;22.60;89.60;;;;;;5011368;28;20108;-82
2022/08/24 00:13:27;;;;;;;8.98;2.63;;;22.50;89.70;;;;;;5015765;28;20101;-81
2022/08/24 00:15:53;;;;;;;5.90;2.63;;;22.50;89.90;;;;;;5019543;28;20026;-80
2022/08/24 00:18:19;;;;;;;6.57;2.72;;;22.50;90.00;;;;;;5013853;28;20474;-81
2022/08/24 00:20:45;;;;;;;8.60;2.80;;;22.50;90.00;;;;;;5016977;28;20041;-82
2022/08/24 00:23:11;;;;;;;6.97;2.72;;;22.40;89.90;;;;;;5009291;28;20033;-81
2022/08/24 00:25:37;;;;;;;5.32;2.78;;;22.40;90.00;;;;;;5015093;28;20093;-82
2022/08/24 00:28:04;;;;;;;6.35;2.50;;;22.40;90.10;;;;;;5012494;28;20407;-82
2022/08/24 00:30:30;;;;;;;5.35;2.70;;;22.40;90.10;;;;;;5026191;28;20477;-81
2022/08/24 00:32:56;;;;;;;5.47;2.75;;;22.40;90.10;;;;;;5015400;28;20117;-82
2022/08/24 00:35:23;;;;;;;6.50;2.70;;;22.40;90.40;;;;;;5015315;28;20033;-80
2022/08/24 00:37:49;;;;;;;10.10;2.80;;;22.40;90.20;;;;;;5013506;28;20049;-81
2022/08/24 00:40:25;;;;;;;4.53;2.55;;;22.30;90.40;;;;;;5014149;28;20053;-82
2022/08/24 00:42:52;;;;;;;6.93;2.53;;;22.20;90.50;;;;;;5025109;28;20026;-80
2022/08/24 00:45:19;;;;;;;8.07;3.03;;;22.20;90.40;;;;;;5015950;28;20037;-83
2022/08/24 00:47:57;;;;;;;5.22;3.00;;;22.10;90.70;;;;;;5011789;28;20130;-80
2022/08/24 00:50:37;;;;;;;3.83;2.85;;;22.10;90.70;;;;;;4990050;28;20064;-81
2022/08/24 00:53:14;;;;;;;5.70;2.70;;;22.10;90.70;;;;;;5009808;28;20023;-81
2022/08/24 00:55:50;;;;;;;3.53;2.17;;;22.10;90.70;;;;;;5003806;28;20041;-81
2022/08/24 00:58:31;;;;;;;5.85;2.65;;;22.10;90.50;;;;;;5014763;28;20096;-83
2022/08/24 01:01:01;;;;;;;6.05;2.60;;;22.10;90.40;;;;;;5013928;28;20363;-80
2022/08/24 01:03:28;;;;;;;6.10;2.50;;;22.10;90.40;;;;;;5008797;28;20105;-82
2022/08/24 01:05:55;;;;;;;6.03;2.92;;;22.00;90.50;;;;;;5013867;28;20037;-82
2022/08/24 01:08:22;;;;;;;7.20;2.85;;;22.10;90.50;;;;;;5013789;28;20084;-83
2022/08/24 01:11:13;;;;;;;6.57;3.08;;;21.90;90.80;;;;;;5011382;28;20022;-83
2022/08/24 01:13:42;;;;;;;11.95;3.00;;;22.00;90.80;;;;;;5019506;28;20041;-83
2022/08/24 01:16:10;;;;;;;8.45;3.17;;;22.00;90.60;;;;;;5013540;28;20105;-81
2022/08/24 01:18:49;;;;;;;6.40;3.15;;;22.00;90.60;;;;;;5024545;28;20034;-82
2022/08/24 01:21:17;;;;;;;6.97;3.17;;;22.00;90.50;;;;;;5012396;28;20739;-80
2022/08/24 01:23:50;;;;;;;7.40;3.03;;;22.00;90.60;;;;;;5005721;28;20117;-82
2022/08/24 01:26:31;;;;;;;6.93;3.25;;;22.00;90.50;;;;;;5010909;28;20018;-82
2022/08/24 01:29:03;;;;;;;5.55;2.67;;;22.00;90.60;;;;;;5013320;28;20066;-82
2022/08/24 01:31:28;;;;;;;7.28;3.40;;;22.00;90.50;;;;;;5014380;28;20045;-82
2022/08/24 01:33:54;;;;;;;8.52;3.55;;;21.90;90.60;;;;;;5010894;28;20085;-83
2022/08/24 01:36:37;;;;;;;6.55;3.22;;;21.90;90.60;;;;;;5014471;28;20374;-81
2022/08/24 01:39:28;;;;;;;9.00;3.58;;;21.90;90.50;;;;;;5009820;28;20030;-82
2022/08/24 01:41:55;;;;;;;8.55;4.00;;;21.90;90.50;;;;;;5009575;28;20095;-83
2022/08/24 01:44:23;;;;;;;12.73;3.78;;;21.80;90.60;;;;;;5017439;28;20045;-81
2022/08/24 01:46:54;;;;;;;8.52;3.50;;;21.80;90.70;;;;;;5012226;28;20474;-80
2022/08/24 01:49:27;;;;;;;7.85;3.30;;;21.80;90.80;;;;;;5020576;28;20049;-79
2022/08/24 01:51:53;;;;;;;7.60;3.20;;;21.70;90.90;;;;;;5006130;28;20042;-81
2022/08/24 01:54:19;;;;;;;6.82;3.78;;;21.70;91.00;;;;;;5013303;28;20470;-82
2022/08/24 01:56:44;;;;;;;5.50;3.08;;;21.60;91.00;;;;;;5029376;28;20875;-79
2022/08/24 01:59:11;;;;;;;8.50;3.25;;;21.60;91.10;;;;;;5009750;28;20034;-80
2022/08/24 02:01:40;;;;;;;6.03;3.10;;;21.50;91.20;;;;;;5017452;28;20046;-80
2022/08/24 02:04:07;;;;;;;5.80;3.00;;;21.50;91.20;;;;;;5023566;28;20029;-79
2022/08/24 02:06:33;;;;;;;6.72;2.70;;;21.50;91.20;;;;;;5024278;28;20025;-82
2022/08/24 02:09:00;;;;;;;5.95;3.08;;;21.50;91.20;;;;;;5015002;28;20038;-80
2022/08/24 02:11:26;;;;;;;6.20;3.17;;;21.40;91.20;;;;;;5020935;28;20029;-80
2022/08/24 02:13:53;;;;;;;5.50;3.45;;;21.40;91.30;;;;;;5025432;28;20042;-80
2022/08/24 02:16:19;;;;;;;6.25;3.42;;;21.40;91.30;;;;;;5018868;28;20467;-81
2022/08/24 02:18:45;;;;;;;5.05;3.10;;;21.40;91.30;;;;;;5038725;28;20034;-83
2022/08/24 02:21:12;;;;;;;3.83;2.78;;;21.30;91.30;;;;;;5018425;28;20022;-80
2022/08/24 02:23:40;;;;;;;9.15;3.55;;;21.30;91.50;;;;;;5024633;28;20093;-81
2022/08/24 02:26:07;;;;;;;8.05;3.85;;;21.30;91.60;;;;;;5021832;28;20029;-81
2022/08/24 02:28:34;;;;;;;7.00;3.58;;;21.30;91.60;;;;;;5030720;28;20552;-79
2022/08/24 02:31:01;;;;;;;8.45;3.67;;;21.30;91.60;;;;;;5010152;28;20025;-79
2022/08/24 02:33:27;;;;;;;9.55;3.38;;;21.30;91.50;;;;;;5029148;28;20026;-82
2022/08/24 02:35:53;;;;;;;10.65;3.10;;;21.20;91.50;;;;;;5012105;28;20042;-82
2022/08/24 02:38:20;;;;;;;11.32;3.95;;;21.20;91.50;;;;;;5007095;28;20124;-82
2022/08/24 02:40:46;;;;;;;6.80;3.47;;;21.20;91.80;;;;;;5014422;28;20026;-83
2022/08/24 02:43:12;;;;;;;6.10;2.90;;;21.20;91.70;;;;;;5011859;28;21747;-82
2022/08/24 02:45:41;;;;;;;7.22;3.22;;;21.20;91.70;;;;;;5006947;28;20052;-82
2022/08/24 02:48:07;;;;;;;5.95;2.95;;;21.10;91.60;;;;;;5013415;28;20027;-82
2022/08/24 02:50:41;;;;;;;6.95;3.45;;;21.10;91.70;;;;;;5011912;28;20443;-81
2022/08/24 02:53:07;;;;;;;5.53;3.53;;;21.10;91.70;;;;;;5011625;28;20659;-83
2022/08/24 02:55:34;;;;;;;5.50;3.30;;;21.00;91.80;;;;;;5007597;28;20022;-83
2022/08/24 02:57:59;;;;;;;9.95;3.45;;;21.00;91.90;;;;;;5012419;28;20018;-80
2022/08/24 03:00:26;;;;;;;5.40;3.22;;;20.90;91.90;;;;;;5025031;28;20552;-80
2022/08/24 03:02:53;;;;;;;4.15;3.28;;;20.90;91.90;;;;;;5003466;28;20061;-81
2022/08/24 03:05:20;;;;;;;6.20;3.15;;;20.90;91.90;;;;;;5015522;28;20026;-83
2022/08/24 03:07:50;;;;;;;6.45;2.90;;;20.90;91.90;;;;;;5004301;28;20022;-83
2022/08/24 03:10:16;;;;;;;6.70;3.35;;;20.90;91.90;;;;;;5005468;28;20034;-82
2022/08/24 03:12:43;;;;;;;8.07;3.67;;;20.90;91.90;;;;;;5017640;28;20018;-80
2022/08/24 03:15:11;;;;;;;6.82;3.30;;;20.90;92.00;;;;;;5013416;28;20422;-82
2022/08/24 03:17:39;;;;;;;6.55;3.67;;;20.90;91.90;;;;;;4994548;28;20049;-81
2022/08/24 03:20:09;;;;;;;8.23;3.45;;;20.90;92.10;;;;;;5005253;28;20053;-83
2022/08/24 03:22:35;;;;;;;8.63;3.55;;;20.90;92.10;;;;;;5008096;28;20035;-83
2022/08/24 03:25:00;;;;;;;6.32;3.75;;;20.90;92.10;;;;;;5008104;28;20038;-81
2022/08/24 03:27:26;;;;;;;5.78;3.13;;;20.80;92.00;;;;;;5022231;28;20517;-83
2022/08/24 03:29:52;;;;;;;10.43;3.78;;;20.80;92.00;;;;;;5001739;28;20514;-83
2022/08/24 03:32:18;;;;;;;8.88;4.57;;;20.80;92.00;;;;;;4998492;28;20027;-82
2022/08/24 03:34:45;;;;;;;13.82;3.72;;;20.80;92.00;;;;;;4996730;28;20026;-81
2022/08/24 03:37:11;;;;;;;7.85;4.05;;;20.80;92.00;;;;;;5014144;28;20033;-80
2022/08/24 03:39:38;;;;;;;7.90;3.85;;;20.70;92.10;;;;;;5009553;28;20529;-82
2022/08/24 03:42:04;;;;;;;5.55;3.47;;;20.70;92.10;;;;;;5015788;28;20506;-80
2022/08/24 03:44:30;;;;;;;7.43;3.97;;;20.70;92.00;;;;;;5014616;28;20038;-79
2022/08/24 03:46:56;;;;;;;10.40;4.85;;;20.70;92.10;;;;;;5013883;28;20037;-80
2022/08/24 03:49:23;;;;;;;11.25;3.90;;;20.70;92.00;;;;;;5016135;28;20061;-80
2022/08/24 03:51:49;;;;;;;12.73;4.63;;;20.70;92.00;;;;;;5005750;28;20029;-81
2022/08/24 03:54:15;;;;;;;6.25;3.40;;;20.70;91.90;;;;;;5023238;28;20036;-82
2022/08/24 03:56:41;;;;;;;7.45;3.60;;;20.70;91.90;;;;;;5007727;28;20044;-82
2022/08/24 03:59:09;;;;;;;5.65;3.38;;;20.60;91.90;;;;;;5032732;28;20449;-81
2022/08/24 04:01:37;;;;;;;4.78;3.33;;;20.60;92.00;;;;;;5010268;28;20426;-79
2022/08/24 04:04:03;;;;;;;6.22;3.70;;;20.60;92.00;;;;;;5026572;28;20025;-82
2022/08/24 04:06:29;;;;;;;7.90;3.65;;;20.60;92.00;;;;;;5004926;28;20056;-81
2022/08/24 04:08:55;;;;;;;7.45;3.78;;;20.40;92.10;;;;;;5015538;28;20074;-82
2022/08/24 04:11:24;;;;;;;4.43;3.65;;;20.50;91.90;;;;;;5015904;28;20030;-80
2022/08/24 04:13:52;;;;;;;8.80;3.75;;;20.50;92.00;;;;;;5010323;28;20029;-82
2022/08/24 04:16:20;;;;;;;11.27;4.22;;;20.50;91.80;;;;;;5012901;28;20030;-82
2022/08/24 04:18:46;;;;;;;7.85;3.83;;;20.50;91.60;;;;;;5023039;28;20026;-81
2022/08/24 04:21:22;;;;;;;6.95;3.63;;;20.50;91.50;;;;;;5005458;28;20032;-83
2022/08/24 04:23:49;;;;;;;10.25;4.15;;;20.60;91.40;;;;;;5016087;28;20026;-81
2022/08/24 04:26:16;;;;;;;7.40;3.97;;;20.50;91.40;;;;;;5010897;28;20045;-81
2022/08/24 04:28:41;;;;;;;7.97;3.45;;;20.50;91.40;;;;;;5022597;28;20454;-81
2022/08/24 04:31:07;;;;;;;9.32;4.47;;;20.60;91.40;;;;;;5013096;28;20094;-83
2022/08/24 04:33:33;;;;;;;6.28;3.92;;;20.50;91.40;;;;;;5011842;28;20434;-82
2022/08/24 04:35:59;;;;;;;4.30;3.45;;;20.50;91.30;;;;;;5013602;28;20034;-80
2022/08/24 04:38:25;;;;;;;11.85;3.80;;;20.50;91.30;;;;;;5017337;28;20034;-80
2022/08/24 04:40:51;;;;;;;6.45;3.70;;;20.50;91.10;;;;;;5006621;28;20053;-82
2022/08/24 04:43:17;;;;;;;11.23;3.95;;;20.50;91.00;;;;;;5015982;28;20099;-80
2022/08/24 04:45:46;;;;;;;6.93;3.55;;;20.50;90.80;;;;;;5004645;28;20344;-80
2022/08/24 04:48:14;;;;;;;4.68;2.85;;;20.50;90.50;;;;;;5014821;28;20030;-80
2022/08/24 04:50:42;;;;;;;7.03;3.25;;;20.50;90.40;;;;;;5001930;28;20113;-82
2022/08/24 04:53:09;;;;;;;6.70;3.60;;;20.60;90.10;;;;;;5032738;28;20018;-81
2022/08/24 04:55:45;;;;;;;12.30;3.35;;;20.50;90.10;;;;;;5011146;28;20022;-80
2022/08/24 04:58:13;;;;;;;6.32;3.30;;;20.60;90.10;;;;;;5014574;28;20117;-82
2022/08/24 05:00:39;;;;;;;4.93;3.17;;;20.60;89.90;;;;;;5012132;28;20790;-80
2022/08/24 05:03:05;;;;;;;6.57;3.05;;;20.60;89.60;;;;;;5017271;28;20445;-81
2022/08/24 05:05:32;;;;;;;5.60;3.03;;;20.60;89.40;;;;;;5014490;28;20048;-80
2022/08/24 05:07:58;;;;;;;5.63;3.30;;;20.70;89.50;;;;;;5031619;28;20022;-80
2022/08/24 05:10:24;;;;;;;8.07;3.40;;;20.70;89.30;;;;;;5015238;28;20050;-82
2022/08/24 05:12:50;;;;;;;4.90;3.35;;;20.70;89.20;;;;;;5014433;28;20026;-79
2022/08/24 05:15:16;;;;;;;4.90;2.70;;;20.70;89.10;;;;;;5018519;28;20028;-81
2022/08/24 05:17:42;;;;;;;4.53;2.85;;;20.70;88.70;;;;;;5015399;28;20025;-81
2022/08/24 05:20:11;;;;;;;7.40;3.00;;;20.60;88.30;;;;;;5019960;28;20585;-82
2022/08/24 05:22:37;;;;;;;8.85;3.17;;;20.70;89.30;;;;;;5009755;28;20079;-81
2022/08/24 05:25:04;;;;;;;7.80;3.22;;;20.70;88.70;;;;;;5013526;28;20034;-79
2022/08/24 05:27:32;;;;;;;5.25;3.05;;;20.70;88.50;;;;;;5018805;28;20108;-80
2022/08/24 05:29:58;;;;;;;5.15;2.90;;;20.80;88.50;;;;;;5002524;28;20038;-80
2022/08/24 05:32:24;;;;;;;5.80;2.90;;;20.80;88.40;;;;;;5009972;28;20027;-80
2022/08/24 05:34:50;;;;;;;8.27;2.78;;;20.80;87.90;;;;;;5014627;28;20109;-81
2022/08/24 05:37:15;;;;;;;5.38;2.67;;;20.80;87.70;;;;;;5013185;28;20080;-80
2022/08/24 05:39:41;;;;;;;4.85;2.72;;;20.90;88.10;;;;;;5012644;28;20502;-81
2022/08/24 05:42:07;;;;;;;4.00;2.38;;;20.90;88.30;;;;;;5008351;28;20041;-82
2022/08/24 05:44:33;;;;;;;4.80;3.08;;;20.90;87.60;;;;;;5013563;28;20034;-81
2022/08/24 05:47:01;;;;;;;6.50;3.00;;;20.90;88.30;;;;;;5013568;28;20568;-82
2022/08/24 05:49:27;;;;;;;4.18;2.80;;;20.90;88.20;;;;;;5015002;28;20080;-80
2022/08/24 05:51:53;;;;;;;5.18;2.60;;;20.90;88.20;;;;;;5013423;28;20030;-80
2022/08/24 05:54:21;;;;;;;3.65;2.45;;;21.00;88.00;;;;;;5014681;28;20080;-79
2022/08/24 05:56:48;;;;;;;5.88;2.50;;;21.00;88.20;;;;;;5016720;28;20029;-80
2022/08/24 05:59:15;;;;;;;3.55;2.53;;;21.10;87.60;;;;;;5005562;28;20690;-81
2022/08/24 06:01:41;;;;;;;6.45;3.13;;;21.10;87.50;;;;;;5025786;28;20086;-81
2022/08/24 06:04:07;;;;;;;5.85;2.90;;;21.10;88.10;;;;;;5026348;28;20041;-79
2022/08/24 06:06:33;;;;;;;5.70;2.88;;;21.10;87.60;;;;;;5031060;28;20029;-80
2022/08/24 06:09:00;;;;;;;4.95;3.00;;;21.00;88.60;;;;;;5015573;28;20029;-81
2022/08/24 06:11:38;;;;;;;4.20;2.95;;;21.10;88.60;;;;;;5012707;28;20037;-79
2022/08/24 06:14:11;;;;;;;4.85;3.05;;;21.10;89.10;;;;;;5014835;28;20025;-79
2022/08/24 06:16:39;;;;;;;8.25;3.38;;;21.10;88.80;;;;;;5007960;28;20034;-81
2022/08/24 06:19:07;;;;;;;7.10;3.58;;;21.10;88.90;;;;;;5021368;28;20042;-81
2022/08/24 06:21:33;;;;;;;4.90;3.15;;;21.10;89.00;;;;;;5014453;28;20040;-79
2022/08/24 06:23:59;;;;;;;5.93;3.13;;;21.10;88.70;;;;;;5009749;28;20026;-81
2022/08/24 06:29:11;;;;;;;8.02;3.53;;;21.30;88.60;;;;;;5006409;28;20053;-80
2022/08/24 06:31:39;;;;;;;9.32;3.50;;;21.30;88.40;;;;;;5013933;28;20026;-80
2022/08/24 06:34:06;;;;;;;4.47;2.90;;;21.40;88.30;;;;;;5000434;28;20560;-79
2022/08/24 06:36:32;;;;;;;7.97;3.28;;;21.30;87.20;;;;;;5015636;28;20029;-80
2022/08/24 06:38:58;;;;;;;9.75;2.83;;;21.20;88.80;;;;;;5019380;28;20030;-80
2022/08/24 06:41:25;;;;;;;5.25;2.70;;;21.20;87.70;;;;;;5014012;28;20030;-81
2022/08/24 06:43:51;;;;;;;5.35;3.05;;;21.30;88.40;;;;;;5012441;28;20034;-82
2022/08/24 06:46:17;;;;;;;7.80;2.50;;;21.20;88.40;;;;;;5009882;28;20034;-81
2022/08/24 06:48:43;;;;;;;7.97;2.58;;;21.30;88.90;;;;;;5032945;28;20022;-82
2022/08/24 06:51:15;;;;;;;6.90;2.50;;;21.30;87.40;;;;;;5010208;28;20430;-81
2022/08/24 06:53:41;;;;;;;3.72;2.42;;;21.40;87.80;;;;;;5014424;28;20034;-81
2022/08/24 06:56:08;;;;;;;4.00;2.60;;;21.40;88.10;;;;;;5016143;28;20030;-81
2022/08/24 06:58:35;;;;;;;6.78;2.53;;;21.50;87.50;;;;;;5027299;28;20056;-82
2022/08/24 07:01:27;;;;;;;6.55;3.45;;;21.60;86.00;;;;;;5020148;28;20025;-81
2022/08/24 07:03:55;;;;;;;5.50;2.65;;;21.60;85.60;;;;;;5017287;28;20108;-80
2022/08/24 07:06:22;;;;;;;5.35;2.58;;;21.70;85.80;;;;;;5012896;28;20065;-79
2022/08/24 07:08:49;;;;;;;8.10;2.60;;;21.80;86.20;;;;;;5015315;28;20056;-80
2022/08/24 07:11:17;;;;;;;7.45;2.38;;;21.90;85.40;;;;;;5014406;28;20056;-80
2022/08/24 07:13:47;;;;;;;4.13;2.60;;;21.90;85.30;;;;;;5017476;28;20117;-81
2022/08/24 07:16:15;;;;;;;7.15;2.60;;;22.00;84.70;;;;;;5018389;28;20036;-79
2022/08/24 07:18:41;;;;;;;10.45;2.60;;;22.00;85.50;;;;;;5019495;28;20026;-80
2022/08/24 07:21:07;;;;;;;5.10;2.47;;;22.10;85.70;;;;;;5010181;28;21788;-80
2022/08/24 07:23:33;;;;;;;3.05;2.33;;;22.20;86.60;;;;;;5015862;28;20041;-81
2022/08/24 07:26:11;;;;;;;11.02;5.18;;;22.20;85.70;;;;;;5018128;28;20104;-80
2022/08/24 07:28:38;;;;;;;6.63;3.00;;;22.40;85.70;;;;;;5013203;28;20030;-81
2022/08/24 07:31:05;;;;;;;5.90;2.20;;;22.40;83.90;;;;;;5015650;28;20471;-80
2022/08/24 07:33:32;;;;;;;13.05;2.47;;;22.50;84.10;;;;;;5011310;28;20037;-81
2022/08/24 07:35:58;;;;;;;6.75;2.22;;;22.50;82.70;;;;;;5037233;28;20037;-82
2022/08/24 07:38:25;;;;;;;5.45;2.63;;;22.50;82.70;;;;;;5040524;28;20040;-83
2022/08/24 07:40:52;;;;;;;5.50;2.53;;;22.50;84.10;;;;;;5013306;28;20022;-80
2022/08/24 07:43:19;;;;;;;7.13;2.50;;;22.70;83.40;;;;;;5020390;28;20053;-83
2022/08/24 07:45:47;;;;;;;5.47;2.65;;;22.70;83.50;;;;;;5020020;28;20038;-81
2022/08/24 07:48:12;;;;;;;5.32;2.47;;;22.80;83.10;;;;;;5016174;28;20034;-79
2022/08/24 07:50:38;;;;;;;4.15;2.53;;;22.90;82.80;;;;;;5013583;28;20033;-80
2022/08/24 07:53:04;;;;;;;4.65;2.10;;;23.00;82.50;;;;;;5014954;28;20050;-82
2022/08/24 07:55:30;;;;;;;4.63;2.33;;;23.00;82.80;;;;;;5019100;28;20030;-81
2022/08/24 07:57:56;;;;;;;5.28;2.38;;;23.00;82.60;;;;;;5014274;28;20025;-80
2022/08/24 08:00:22;;;;;;;5.93;2.85;;;23.10;82.20;;;;;;5025139;28;20124;-79
2022/08/24 08:02:49;;;;;;;4.85;2.50;;;23.20;82.20;;;;;;5015410;28;20022;-80
2022/08/24 08:05:19;;;;;;;3.88;2.17;;;23.30;81.00;;;;;;5022351;28;20034;-82
2022/08/24 08:07:45;;;;;;;3.53;2.28;;;23.30;80.90;;;;;;5017936;28;20117;-79
2022/08/24 08:10:11;;;;;;;5.90;2.03;;;23.30;81.60;;;;;;5022750;28;20060;-81
2022/08/24 08:12:37;;;;;;;4.93;2.50;;;23.30;80.50;;;;;;5028236;28;20407;-82
2022/08/24 08:15:07;;;;;;;7.78;3.33;;;23.40;80.90;;;;;;5016439;28;20040;-82
2022/08/24 08:17:33;;;;;;;5.55;2.47;;;23.40;79.60;;;;;;5021708;28;20030;-83
2022/08/24 08:19:59;;;;;;;7.00;2.33;;;23.40;80.30;;;;;;5012215;28;20069;-82
2022/08/24 08:25:09;;;;;;;3.33;2.42;;;23.50;80.20;;;;;;5010275;28;20486;-80
2022/08/24 08:27:35;;;;;;;4.68;2.40;;;23.50;79.80;;;;;;5018763;28;20029;-81
2022/08/24 08:30:05;;;;;;;9.55;2.65;;;23.60;80.00;;;;;;5013270;28;20282;-82
2022/08/24 08:32:34;;;;;;;6.47;2.10;;;23.70;80.10;;;;;;5018944;28;20026;-80
2022/08/24 08:35:00;;;;;;;9.52;3.00;;;23.70;79.10;;;;;;5012593;28;20032;-81
2022/08/24 08:37:25;;;;;;;6.70;2.45;;;23.80;79.80;;;;;;5021040;28;20021;-81
2022/08/24 08:39:51;;;;;;;4.05;2.40;;;23.90;79.70;;;;;;5014613;28;20541;-81
2022/08/24 08:42:29;;;;;;;8.02;2.55;;;23.90;79.90;;;;;;5012259;28;20105;-80
2022/08/24 08:45:18;;;;;;;6.32;2.35;;;24.00;79.40;;;;;;5010638;28;20041;-81
2022/08/24 08:47:56;;;;;;;3.28;2.13;;;24.00;79.10;;;;;;5011054;28;20026;-80
2022/08/24 08:50:47;;;;;;;10.35;3.05;;;24.00;79.00;;;;;;5017554;28;20025;-79
2022/08/24 08:53:50;;;;;;;8.35;2.58;;;24.10;79.30;;;;;;5011984;28;20034;-81
2022/08/24 08:56:28;;;;;;;8.68;2.63;;;24.20;79.40;;;;;;5017650;28;20030;-81
2022/08/24 08:59:09;;;;;;;3.90;2.38;;;24.30;79.00;;;;;;5017909;28;20513;-81
2022/08/24 09:01:54;;;;;;;5.93;2.30;;;24.30;79.10;;;;;;5016646;28;20033;-81
2022/08/24 09:04:19;;;;;;;5.20;2.65;;;24.30;79.20;;;;;;5022232;28;20081;-79
2022/08/24 09:07:24;;;;;;;8.68;2.75;;;24.50;79.30;;;;;;5016662;28;20058;-81
2022/08/24 09:09:53;;;;;;;4.68;2.78;;;24.70;77.90;;;;;;5018319;28;20041;-81
2022/08/24 09:12:34;;;;;;;23.45;4.45;;;24.70;77.70;;;;;;5007375;28;20762;-80
2022/08/24 09:15:51;;;;;;;8.02;2.58;;;24.70;76.70;;;;;;5000478;28;20109;-79
2022/08/24 09:18:32;;;;;;;5.82;3.20;;;24.70;77.90;;;;;;5010779;28;20041;-81
2022/08/24 09:21:13;;;;;;;9.75;2.40;;;24.70;77.30;;;;;;5010418;28;20034;-80
2022/08/24 09:24:07;;;;;;;8.57;3.72;;;24.70;76.40;;;;;;4997305;28;20057;-81
2022/08/24 09:27:05;;;;;;;6.68;2.78;;;24.70;77.10;;;;;;5014188;28;20038;-80
2022/08/24 09:29:34;;;;;;;7.00;2.50;;;24.70;78.00;;;;;;5023465;28;20038;-78
2022/08/24 09:32:10;;;;;;;6.50;2.80;;;24.80;78.00;;;;;;5012420;28;20168;-82
2022/08/24 09:34:58;;;;;;;8.48;2.72;;;24.80;76.60;;;;;;5005648;28;20032;-80
2022/08/24 09:37:30;;;;;;;8.35;2.70;;;24.80;77.00;;;;;;5016526;28;20029;-81
2022/08/24 09:40:22;;;;;;;5.35;2.60;;;24.80;77.90;;;;;;5010195;28;20033;-81
2022/08/24 09:42:54;;;;;;;6.95;2.70;;;24.90;78.10;;;;;;4998116;28;20099;-80
2022/08/24 09:45:26;;;;;;;6.63;2.92;;;25.00;78.10;;;;;;5009223;28;20027;-81
2022/08/24 09:48:05;;;;;;;3.25;2.03;;;25.00;77.50;;;;;;5020534;28;20029;-80
2022/08/24 09:50:46;;;;;;;6.25;2.80;;;25.20;77.50;;;;;;5011334;28;20044;-82
2022/08/24 09:53:14;;;;;;;7.05;2.58;;;25.30;77.70;;;;;;5018744;28;20120;-81
2022/08/24 09:56:07;;;;;;;4.10;2.50;;;25.30;76.10;;;;;;5012015;28;20113;-80
2022/08/24 09:58:57;;;;;;;3.50;2.42;;;25.30;76.40;;;;;;5025547;28;20034;-80
2022/08/24 10:01:48;;;;;;;4.88;2.17;;;25.40;77.30;;;;;;5016457;28;20116;-80
2022/08/24 10:04:35;;;;;;;4.88;2.15;;;25.30;77.40;;;;;;5013960;28;20057;-81
2022/08/24 10:07:14;;;;;;;4.97;2.28;;;25.40;77.30;;;;;;5014003;28;20115;-80
2022/08/24 10:10:10;;;;;;;6.03;2.60;;;25.40;76.80;;;;;;5027735;28;20026;-81
2022/08/24 10:12:46;;;;;;;5.63;2.08;;;25.50;77.00;;;;;;5005991;28;20026;-81
2022/08/24 10:15:33;;;;;;;8.25;2.53;;;25.50;76.90;;;;;;5013855;28;20040;-80
2022/08/24 10:18:23;;;;;;;5.28;2.33;;;25.60;77.40;;;;;;5022771;28;20022;-81
2022/08/24 10:20:58;;;;;;;5.50;2.55;;;25.60;76.90;;;;;;5012397;28;20041;-80
2022/08/24 10:23:54;;;;;;;8.38;2.92;;;25.60;76.00;;;;;;5008880;28;20052;-82
2022/08/24 10:26:22;;;;;;;8.13;2.58;;;26.20;75.70;;;;;;5007113;28;20434;-82
2022/08/24 10:29:11;;;;;;;5.00;2.10;;;26.50;73.90;;;;;;5005662;28;20034;-80
2022/08/24 10:32:14;;;;;;;3.63;2.00;;;26.60;74.30;;;;;;5008509;28;20026;-79
2022/08/24 10:35:00;;;;;;;7.75;2.00;;;26.40;74.30;;;;;;5017553;28;20050;-80
2022/08/24 10:37:35;;;;;;;8.43;3.58;;;26.40;74.10;;;;;;5007571;28;20028;-81
2022/08/24 10:40:19;;;;;;;6.38;2.53;;;26.40;73.60;;;;;;5018069;28;20028;-81
2022/08/24 10:45:50;;;;;;;8.88;3.53;;;26.50;73.40;;;;;;5005248;28;20044;-81
2022/08/24 10:48:31;;;;;;;5.93;1.95;;;26.50;73.40;;;;;;5010126;28;20033;-81
2022/08/24 10:51:21;;;;;;;8.45;2.28;;;26.50;73.30;;;;;;5016659;28;20026;-80
2022/08/24 10:53:51;;;;;;;2.85;1.73;;;26.40;73.40;;;;;;5013227;28;20049;-80
2022/08/24 10:56:20;;;;;;;4.75;1.98;;;26.60;72.50;;;;;;5013626;28;20129;-81
2022/08/24 10:58:54;;;;;;;10.48;1.83;;;26.50;74.20;;;;;;5015508;28;20033;-80
2022/08/24 11:01:26;;;;;;;3.58;1.70;;;26.40;74.80;;;;;;5012744;28;20112;-80
2022/08/24 11:04:00;;;;;;;4.07;1.65;;;26.40;74.80;;;;;;5013025;28;20025;-80
2022/08/24 11:06:37;;;;;;;8.05;2.00;;;26.50;73.20;;;;;;5007413;28;20034;-80
2022/08/24 11:09:07;;;;;;;4.72;1.92;;;27.10;72.80;;;;;;5009705;28;20522;-82
2022/08/24 11:11:37;;;;;;;7.88;2.00;;;27.10;72.40;;;;;;5003967;28;20022;-81
2022/08/24 11:14:32;;;;;;;20.05;3.45;;;27.30;70.50;;;;;;5017585;28;20120;-82
2022/08/24 11:17:19;;;;;;;11.18;2.25;;;27.30;72.00;;;;;;5003570;28;20099;-80
2022/08/24 11:19:46;;;;;;;5.43;2.13;;;27.30;71.60;;;;;;5005310;28;20461;-80
2022/08/24 11:22:30;;;;;;;7.88;2.33;;;27.50;70.60;;;;;;5011726;28;20030;-80
2022/08/24 11:25:22;;;;;;;4.75;1.52;;;27.70;70.60;;;;;;5014198;28;20034;-80
2022/08/24 11:27:52;;;;;;;2.40;1.70;;;27.60;70.70;;;;;;5023518;28;20505;-80
2022/08/24 11:30:17;;;;;;;12.02;1.83;;;27.50;70.80;;;;;;5014129;28;20453;-81
2022/08/24 11:32:50;;;;;;;3.97;1.65;;;27.50;71.30;;;;;;5004770;28;20088;-80
2022/08/24 11:35:24;;;;;;;10.05;1.77;;;27.40;71.20;;;;;;5025076;28;20041;-79
2022/08/24 11:37:56;;;;;;;3.47;2.00;;;27.30;71.50;;;;;;5012954;28;20025;-81
2022/08/24 11:40:27;;;;;;;7.40;2.30;;;27.20;71.30;;;;;;5011303;28;20026;-81
2022/08/24 11:43:05;;;;;;;3.97;2.25;;;27.30;71.00;;;;;;5013718;28;20355;-79
2022/08/24 11:45:44;;;;;;;4.70;2.03;;;27.30;70.80;;;;;;5011113;28;20045;-80
2022/08/24 11:48:17;;;;;;;3.85;2.03;;;27.30;68.70;;;;;;5011283;28;20120;-80
2022/08/24 11:51:01;;;;;;;7.38;1.80;;;27.30;68.30;;;;;;5014481;28;20120;-82
2022/08/24 11:53:38;;;;;;;;;;;27.90;68.40;;;;;;5030630;28;20022;-80
2022/08/24 11:56:22;;;;;;;5.55;2.00;;;27.90;68.00;;;;;;5012639;28;19945;-82
2022/08/24 11:59:20;;;;;;;5.03;1.45;;;27.80;68.60;;;;;;5012063;28;20053;-81
2022/08/24 12:01:53;;;;;;;3.35;1.90;;;27.70;68.00;;;;;;5008673;28;20026;-81
2022/08/24 12:04:47;;;;;;;4.60;1.40;;;27.60;68.30;;;;;;5017424;28;20034;-82
2022/08/24 12:07:38;;;;;;;6.88;1.73;;;27.50;67.90;;;;;;5033322;28;20113;-82
2022/08/24 12:10:45;;;;;;;4.72;2.03;;;27.60;68.60;;;;;;5018763;28;20087;-82
2022/08/24 12:13:23;;;;;;;4.88;1.80;;;27.80;69.10;;;;;;4991046;28;20054;-82
2022/08/24 12:16:04;;;;;;;3.20;1.63;;;27.70;68.20;;;;;;5024564;28;20098;-80
2022/08/24 12:18:38;;;;;;;3.08;1.60;;;27.70;67.40;;;;;;5018053;28;20036;-81
2022/08/24 12:21:07;;;;;;;4.20;1.98;;;27.90;65.10;;;;;;5014497;28;20032;-81
2022/08/24 12:23:44;;;;;;;2.63;1.80;;;27.90;66.50;;;;;;5009699;28;20105;-80
2022/08/24 12:26:13;;;;;;;4.97;2.40;;;27.70;66.90;;;;;;5024205;28;20121;-80
2022/08/24 12:28:41;;;;;;;3.47;1.60;;;27.60;67.60;;;;;;5014185;28;20094;-82
2022/08/24 12:31:28;;;;;;;2.42;1.65;;;27.70;68.10;;;;;;5023563;28;20038;-80
2022/08/24 12:33:57;;;;;;;5.22;1.90;;;28.40;65.30;;;;;;5010958;28;20049;-81
2022/08/24 12:36:31;;;;;;;4.05;1.77;;;28.60;65.70;;;;;;5015401;28;20060;-81
2022/08/24 12:39:11;;;;;;;5.55;2.30;;;28.40;65.80;;;;;;5015921;28;20029;-80
2022/08/24 12:42:03;;;;;;;6.22;2.00;;;28.30;66.60;;;;;;5016789;28;20026;-84
2022/08/24 12:44:39;;;;;;;11.48;2.45;;;28.30;66.30;;;;;;5018232;28;20034;-84
2022/08/24 12:47:05;;;;;;;4.65;2.05;;;28.20;66.60;;;;;;5018363;28;20471;-84
2022/08/24 12:49:48;;;;;;;10.55;1.98;;;28.10;67.00;;;;;;5017101;28;20040;-81
2022/08/24 12:52:41;;;;;;;2.85;1.85;;;28.00;66.90;;;;;;5016464;28;20048;-83
2022/08/24 12:55:20;;;;;;;2.60;1.75;;;28.00;67.30;;;;;;5007573;28;20026;-82
2022/08/24 12:57:48;;;;;;;5.78;2.30;;;27.90;67.10;;;;;;5013889;28;20049;-81
2022/08/24 13:00:25;;;;;;;7.43;2.13;;;27.80;67.10;;;;;;5012149;28;20033;-82
2022/08/24 13:03:01;;;;;;;3.60;2.10;;;27.80;67.90;;;;;;5016827;28;20129;-83
2022/08/24 13:05:40;;;;;;;3.80;1.85;;;27.80;65.20;;;;;;5014661;28;20030;-83
2022/08/24 13:08:30;;;;;;;4.00;2.05;;;28.00;65.80;;;;;;5016855;28;20530;-81
2022/08/24 13:11:12;;;;;;;5.72;2.22;;;28.00;66.20;;;;;;5017880;28;20029;-79
2022/08/24 13:13:43;;;;;;;5.22;2.17;;;28.40;65.30;;;;;;5013655;28;20029;-81
2022/08/24 13:16:10;;;;;;;4.35;1.83;;;28.40;65.40;;;;;;5016604;28;20045;-83
2022/08/24 13:18:46;;;;;;;6.03;2.65;;;28.30;65.90;;;;;;5011045;28;20088;-82